Time;durP1;ratioP1;P1;durP2;ratioP2;P2;SDS_P1;SDS_P2;PMS_P1;PMS_P2;Temp;Humidity;BMP_temperature;BMP_pressure;BME280_temperature;BME280_humidity;BME280_pressure;Samples;Min_cycle;Max_cycle;Signal;HPM_P1;HPM_P2
2022/05/30 00:00:38;;;;;;;1.43;1.13;;;8.60;99.90;;;;;;5049396;28;20184;-77
2022/05/30 00:03:05;;;;;;;1.50;1.20;;;8.60;99.90;;;;;;5032618;28;20254;-77
2022/05/30 00:05:31;;;;;;;1.40;1.00;;;8.50;99.90;;;;;;5032766;28;20182;-77
2022/05/30 00:07:57;;;;;;;1.20;1.10;;;8.40;99.90;;;;;;5032493;28;20542;-77
2022/05/30 00:10:23;;;;;;;1.67;1.27;;;8.20;99.90;;;;;;5032612;28;20229;-77
2022/05/30 00:12:49;;;;;;;1.53;1.30;;;8.10;99.90;;;;;;5048979;28;20595;-77
2022/05/30 00:15:21;;;;;;;1.53;1.20;;;8.10;99.90;;;;;;5049140;28;20178;-77
2022/05/30 00:17:47;;;;;;;1.87;1.30;;;8.00;99.90;;;;;;5033631;28;20220;-77
2022/05/30 00:20:13;;;;;;;1.37;1.20;;;8.00;99.90;;;;;;5033506;28;20554;-77
2022/05/30 00:22:40;;;;;;;1.10;1.00;;;7.90;99.90;;;;;;5031995;28;20198;-77
2022/05/30 00:25:06;;;;;;;1.10;1.00;;;8.00;99.90;;;;;;5032372;28;20241;-77
2022/05/30 00:27:32;;;;;;;1.80;1.23;;;8.10;99.90;;;;;;5048685;28;20272;-77
2022/05/30 00:29:57;;;;;;;1.53;1.20;;;8.10;99.90;;;;;;5015734;28;20198;-77
2022/05/30 00:32:24;;;;;;;1.20;1.10;;;8.20;99.90;;;;;;5031743;28;20197;-77
2022/05/30 00:34:50;;;;;;;1.43;1.33;;;7.80;99.90;;;;;;5015662;28;20554;-77
2022/05/30 00:37:16;;;;;;;1.83;1.40;;;7.80;99.90;;;;;;5032008;28;20237;-77
2022/05/30 00:39:41;;;;;;;1.40;1.20;;;7.80;99.90;;;;;;4999579;28;20179;-77
2022/05/30 00:42:10;;;;;;;1.50;1.20;;;7.90;99.90;;;;;;5047723;28;20192;-77
2022/05/30 00:44:36;;;;;;;1.70;1.30;;;7.90;99.90;;;;;;5031843;28;20741;-77
2022/05/30 00:47:02;;;;;;;1.97;1.33;;;7.90;99.90;;;;;;5014380;28;20265;-77
2022/05/30 00:49:27;;;;;;;1.47;1.13;;;7.80;99.90;;;;;;5031698;28;20207;-77
2022/05/30 00:51:56;;;;;;;1.20;1.10;;;7.70;99.90;;;;;;5031540;28;20196;-77
2022/05/30 00:54:32;;;;;;;1.30;1.20;;;7.70;99.90;;;;;;5031982;28;20181;-77
2022/05/30 00:57:00;;;;;;;1.30;1.20;;;7.60;99.90;;;;;;5033008;28;20176;-77
2022/05/30 00:59:26;;;;;;;1.97;1.30;;;7.50;99.90;;;;;;5031531;28;20174;-77
2022/05/30 01:01:52;;;;;;;1.40;1.30;;;7.50;99.90;;;;;;4998481;28;20205;-77
2022/05/30 01:07:08;;;;;;;1.50;1.30;;;7.50;99.90;;;;;;5031993;28;20261;-77
2022/05/30 01:09:44;;;;;;;1.10;1.00;;;7.50;99.90;;;;;;5031837;28;20585;-77
2022/05/30 01:12:11;;;;;;;1.00;1.00;;;7.50;99.90;;;;;;5031053;28;20570;-77
2022/05/30 01:14:40;;;;;;;1.47;1.10;;;7.60;99.90;;;;;;5031239;28;20233;-77
2022/05/30 01:17:12;;;;;;;1.20;1.10;;;7.50;99.90;;;;;;5031577;28;20174;-77
2022/05/30 01:19:57;;;;;;;3.33;1.10;;;7.30;99.90;;;;;;5048042;28;20659;-77
2022/05/30 01:23:06;;;;;;;1.60;1.30;;;7.20;99.90;;;;;;5030957;28;20204;-77
2022/05/30 01:26:07;;;;;;;1.50;1.17;;;7.20;99.90;;;;;;5031431;28;20181;-77
2022/05/30 01:28:38;;;;;;;1.20;1.10;;;7.10;99.90;;;;;;5031159;28;20183;-77
2022/05/30 01:31:05;;;;;;;1.37;1.00;;;7.10;99.90;;;;;;5030954;28;20579;-77
2022/05/30 01:33:31;;;;;;;1.53;1.27;;;7.10;99.90;;;;;;5047392;28;20182;-77
2022/05/30 01:35:57;;;;;;;1.40;1.20;;;7.10;99.90;;;;;;5031398;28;20193;-77
2022/05/30 01:38:24;;;;;;;1.17;1.07;;;7.30;99.90;;;;;;5031257;28;20181;-77
2022/05/30 01:40:50;;;;;;;1.70;1.30;;;7.40;99.90;;;;;;5031166;28;20185;-77
2022/05/30 01:43:16;;;;;;;2.13;1.30;;;7.40;99.90;;;;;;5030939;28;20214;-77
2022/05/30 01:45:42;;;;;;;1.20;1.10;;;7.50;99.90;;;;;;5047388;28;20178;-77
2022/05/30 01:48:08;;;;;;;1.40;1.20;;;7.50;99.90;;;;;;5047489;28;20191;-77
2022/05/30 01:50:34;;;;;;;1.67;1.10;;;7.50;99.90;;;;;;5014683;28;20259;-77
2022/05/30 01:53:00;;;;;;;1.40;1.13;;;7.70;99.90;;;;;;5031845;28;20194;-77
2022/05/30 01:55:26;;;;;;;1.17;1.07;;;7.50;99.90;;;;;;5031270;28;20277;-77
2022/05/30 01:57:52;;;;;;;1.03;1.00;;;7.50;99.90;;;;;;5033164;28;20271;-77
2022/05/30 02:00:17;;;;;;;2.33;1.30;;;7.40;99.90;;;;;;5036134;28;20185;-77
2022/05/30 02:02:43;;;;;;;1.20;1.10;;;7.50;99.90;;;;;;5018394;28;20212;-77
2022/05/30 02:05:10;;;;;;;1.17;1.10;;;7.60;99.90;;;;;;5034812;28;20253;-77
2022/05/30 02:07:36;;;;;;;1.53;1.20;;;7.60;99.90;;;;;;5035053;28;20522;-77
2022/05/30 02:10:02;;;;;;;1.77;1.10;;;7.60;99.90;;;;;;5034793;28;20208;-77
2022/05/30 02:12:28;;;;;;;1.20;1.10;;;7.40;99.90;;;;;;5017930;28;20264;-77
2022/05/30 02:14:53;;;;;;;1.20;1.10;;;7.30;99.90;;;;;;5034877;28;20182;-77
2022/05/30 02:17:19;;;;;;;1.30;1.20;;;7.20;99.90;;;;;;5035847;28;20201;-77
2022/05/30 02:19:45;;;;;;;1.70;1.00;;;7.20;99.90;;;;;;5034500;28;20190;-77
2022/05/30 02:22:17;;;;;;;1.90;1.10;;;7.30;99.90;;;;;;5051098;28;20260;-77
2022/05/30 02:24:43;;;;;;;1.30;1.10;;;7.30;99.90;;;;;;5051125;28;20246;-77
2022/05/30 02:27:11;;;;;;;1.20;1.10;;;7.40;99.90;;;;;;5051105;28;20276;-77
2022/05/30 02:29:38;;;;;;;1.30;1.20;;;7.60;99.90;;;;;;5034686;28;20203;-77
2022/05/30 02:32:04;;;;;;;1.40;1.10;;;7.70;99.90;;;;;;5050806;28;20251;-77
2022/05/30 02:37:13;;;;;;;1.83;1.20;;;7.80;99.90;;;;;;5020881;28;20196;-77
2022/05/30 02:39:39;;;;;;;2.10;1.30;;;7.90;99.90;;;;;;5050880;28;20182;-77
2022/05/30 02:42:06;;;;;;;1.40;1.30;;;7.80;99.90;;;;;;5033936;28;20260;-77
2022/05/30 02:44:32;;;;;;;1.40;1.30;;;7.80;99.90;;;;;;5034101;28;20586;-77
2022/05/30 02:46:58;;;;;;;1.30;1.20;;;7.80;99.90;;;;;;5034299;28;20182;-77
2022/05/30 02:49:25;;;;;;;1.30;1.20;;;7.80;99.90;;;;;;5050741;28;20687;-77
2022/05/30 02:51:51;;;;;;;1.57;1.40;;;7.70;99.90;;;;;;5033735;28;20202;-77
2022/05/30 02:54:17;;;;;;;1.30;1.20;;;7.70;99.90;;;;;;5050932;28;20181;-77
2022/05/30 02:56:57;;;;;;;1.30;1.20;;;7.80;99.90;;;;;;5050565;28;20186;-77
2022/05/30 02:59:24;;;;;;;1.77;1.30;;;7.70;99.90;;;;;;5050623;28;20174;-77
2022/05/30 03:01:50;;;;;;;1.90;1.30;;;7.70;99.90;;;;;;5017359;28;20232;-77
2022/05/30 03:04:15;;;;;;;1.47;1.37;;;7.80;99.90;;;;;;5033881;28;20186;-77
2022/05/30 03:06:42;;;;;;;1.43;1.33;;;7.80;99.90;;;;;;5050396;28;20241;-77
2022/05/30 03:09:09;;;;;;;1.33;1.23;;;7.90;99.90;;;;;;5048964;28;20205;-77
2022/05/30 03:11:35;;;;;;;1.97;1.33;;;7.90;99.90;;;;;;5033568;28;20265;-77
2022/05/30 03:14:01;;;;;;;1.40;1.30;;;7.90;99.90;;;;;;5033525;28;20179;-77
2022/05/30 03:16:27;;;;;;;2.23;1.30;;;7.70;99.90;;;;;;5033795;28;20299;-77
2022/05/30 03:18:53;;;;;;;1.37;1.27;;;7.60;99.90;;;;;;5050132;28;20185;-77
2022/05/30 03:21:19;;;;;;;1.40;1.30;;;7.50;99.90;;;;;;5016708;28;20203;-77
2022/05/30 03:23:44;;;;;;;1.47;1.37;;;7.50;99.90;;;;;;5034807;28;20167;-77
2022/05/30 03:26:11;;;;;;;1.40;1.30;;;7.50;99.90;;;;;;5017634;28;20178;-77
2022/05/30 03:28:38;;;;;;;2.07;1.37;;;7.50;99.90;;;;;;5035125;28;20220;-77
2022/05/30 03:31:07;;;;;;;1.53;1.40;;;7.70;99.90;;;;;;5017677;28;20211;-77
2022/05/30 03:33:33;;;;;;;2.07;1.40;;;7.70;99.90;;;;;;5017291;28;20170;-77
2022/05/30 03:35:59;;;;;;;1.33;1.23;;;7.80;99.90;;;;;;5033867;28;20174;-77
2022/05/30 03:38:24;;;;;;;1.43;1.27;;;7.80;99.90;;;;;;5017286;28;20176;-77
2022/05/30 03:40:50;;;;;;;1.40;1.30;;;7.80;99.90;;;;;;5017224;28;20557;-77
2022/05/30 03:43:15;;;;;;;2.80;1.30;;;7.70;99.90;;;;;;5017147;28;20259;-77
2022/05/30 03:45:43;;;;;;;1.30;1.20;;;7.70;99.90;;;;;;5017057;28;20190;-77
2022/05/30 03:48:11;;;;;;;2.07;1.50;;;7.80;99.90;;;;;;5033424;28;20197;-77
2022/05/30 03:50:39;;;;;;;1.70;1.53;;;7.90;99.90;;;;;;5033181;28;20227;-77
2022/05/30 03:53:05;;;;;;;1.40;1.30;;;7.80;99.90;;;;;;5033019;28;20598;-77
2022/05/30 03:55:34;;;;;;;1.33;1.23;;;7.90;99.90;;;;;;5033482;28;20178;-77
2022/05/30 03:58:04;;;;;;;1.87;1.50;;;8.00;99.90;;;;;;5033189;28;20174;-77
2022/05/30 04:00:31;;;;;;;2.73;1.30;;;8.00;99.90;;;;;;5017506;28;20174;-77
2022/05/30 04:02:57;;;;;;;2.00;1.50;;;8.10;99.90;;;;;;5032876;28;20264;-77
2022/05/30 04:05:23;;;;;;;1.50;1.40;;;8.20;99.90;;;;;;5016550;28;20630;-77
2022/05/30 04:07:49;;;;;;;1.73;1.50;;;8.20;99.90;;;;;;5016918;28;20181;-77
2022/05/30 04:10:14;;;;;;;1.53;1.33;;;8.20;99.90;;;;;;5016446;28;20692;-77
2022/05/30 04:12:40;;;;;;;2.20;1.50;;;8.20;99.90;;;;;;5032883;28;20214;-77
2022/05/30 04:15:08;;;;;;;1.70;1.40;;;8.20;99.90;;;;;;5016819;28;20184;-77
2022/05/30 04:17:36;;;;;;;2.17;1.40;;;8.20;99.90;;;;;;5016362;28;20182;-77
2022/05/30 04:20:04;;;;;;;1.83;1.43;;;8.10;99.90;;;;;;5016729;28;20191;-77
2022/05/30 04:22:30;;;;;;;1.70;1.60;;;8.20;99.90;;;;;;5032463;28;20202;-77
2022/05/30 04:24:55;;;;;;;1.40;1.30;;;8.20;99.90;;;;;;5016183;28;20183;-77
2022/05/30 04:27:21;;;;;;;1.83;1.50;;;8.30;99.90;;;;;;5032726;28;20202;-77
2022/05/30 04:29:48;;;;;;;1.40;1.30;;;8.40;99.90;;;;;;5032581;28;20202;-77
2022/05/30 04:32:16;;;;;;;3.83;1.40;;;8.50;99.90;;;;;;5016363;28;20662;-77
2022/05/30 04:34:42;;;;;;;1.83;1.50;;;8.40;99.90;;;;;;5032840;28;20562;-77
2022/05/30 04:37:07;;;;;;;1.60;1.50;;;8.40;99.90;;;;;;5032435;28;20178;-77
2022/05/30 04:39:33;;;;;;;1.73;1.53;;;8.40;99.90;;;;;;5016001;28;20196;-77
2022/05/30 04:41:59;;;;;;;2.17;1.60;;;8.50;99.90;;;;;;5015574;28;20669;-77
2022/05/30 04:44:24;;;;;;;1.83;1.60;;;8.40;99.90;;;;;;5016261;28;20184;-77
2022/05/30 04:46:52;;;;;;;2.70;1.57;;;8.40;99.90;;;;;;5032253;28;20605;-77
2022/05/30 04:49:17;;;;;;;1.70;1.60;;;8.50;99.90;;;;;;5032253;28;20206;-77
2022/05/30 04:51:43;;;;;;;1.90;1.70;;;8.50;99.90;;;;;;5032235;28;20196;-77
2022/05/30 04:54:08;;;;;;;1.80;1.70;;;8.30;99.90;;;;;;5015631;28;20178;-77
2022/05/30 04:56:34;;;;;;;3.40;1.70;;;8.20;99.90;;;;;;5032218;28;20169;-77
2022/05/30 04:59:00;;;;;;;1.80;1.70;;;8.40;99.90;;;;;;5015616;28;20180;-77
2022/05/30 05:01:27;;;;;;;2.50;1.90;;;8.40;99.90;;;;;;5032324;28;20202;-77
2022/05/30 05:03:52;;;;;;;2.37;1.80;;;8.40;99.90;;;;;;5016095;28;20213;-77
2022/05/30 05:06:20;;;;;;;1.90;1.80;;;8.30;99.90;;;;;;5016678;28;20170;-78
2022/05/30 05:08:59;;;;;;;2.10;1.90;;;8.30;99.90;;;;;;5017761;28;20312;-78
2022/05/30 05:11:30;;;;;;;3.63;1.70;;;8.30;99.90;;;;;;5034063;28;20213;-78
2022/05/30 05:13:56;;;;;;;2.33;2.00;;;8.30;99.90;;;;;;5032092;28;20261;-77
2022/05/30 05:16:25;;;;;;;2.30;2.10;;;8.40;99.90;;;;;;5015738;28;20187;-77
2022/05/30 05:18:51;;;;;;;2.57;2.03;;;8.50;99.90;;;;;;5032987;28;20178;-78
2022/05/30 05:21:19;;;;;;;3.13;2.10;;;8.60;99.90;;;;;;5031735;28;20222;-78
2022/05/30 05:23:45;;;;;;;3.20;2.20;;;8.70;99.90;;;;;;5015596;28;20206;-78
2022/05/30 05:26:11;;;;;;;2.53;2.20;;;8.70;99.90;;;;;;5032960;28;20653;-78
2022/05/30 05:28:37;;;;;;;2.10;1.90;;;8.80;99.90;;;;;;5031832;28;20178;-78
2022/05/30 07:46:59;;;;;;;2.43;1.40;;;12.70;99.90;;;;;;5923909;22;20222;-77
2022/05/30 07:49:25;;;;;;;3.03;1.50;;;12.90;99.90;;;;;;4993255;28;20594;-78
2022/05/30 07:51:50;;;;;;;2.80;1.50;;;13.10;99.90;;;;;;4993255;28;20175;-78
2022/05/30 07:54:16;;;;;;;3.13;1.60;;;13.20;99.90;;;;;;4987055;28;20183;-79
2022/05/30 07:56:42;;;;;;;2.63;1.57;;;13.20;99.90;;;;;;4989507;28;20208;-79
2022/05/30 07:59:08;;;;;;;1.90;1.70;;;13.30;99.90;;;;;;4974305;28;20190;-78
2022/05/30 08:01:34;;;;;;;1.83;1.60;;;13.40;99.90;;;;;;4976766;28;20175;-78
2022/05/30 08:04:01;;;;;;;3.80;1.70;;;13.10;99.90;;;;;;5003293;28;20179;-77
2022/05/30 08:06:29;;;;;;;2.17;1.50;;;12.90;99.90;;;;;;4996661;28;20171;-78
2022/05/30 08:08:56;;;;;;;2.67;1.60;;;13.00;99.90;;;;;;4966083;28;20524;-77
2022/05/30 08:11:23;;;;;;;1.50;1.40;;;13.20;99.90;;;;;;4993593;28;20246;-77
2022/05/30 08:13:49;;;;;;;2.83;1.80;;;13.30;99.90;;;;;;4993571;28;20704;-77
2022/05/30 08:16:19;;;;;;;1.83;1.47;;;13.50;99.90;;;;;;4977652;28;20203;-78
2022/05/30 08:18:44;;;;;;;1.50;1.30;;;13.50;99.90;;;;;;4994993;28;20215;-78
2022/05/30 08:21:10;;;;;;;3.53;1.33;;;13.50;99.90;;;;;;4977288;28;20207;-77
2022/05/30 08:23:36;;;;;;;2.33;1.57;;;13.70;99.90;;;;;;4977376;28;20183;-77
2022/05/30 08:26:02;;;;;;;2.10;1.40;;;13.60;99.90;;;;;;4994606;28;20234;-77
2022/05/30 08:28:28;;;;;;;1.30;1.20;;;13.40;99.90;;;;;;4960522;28;20203;-77
2022/05/30 08:30:53;;;;;;;1.73;1.30;;;13.20;99.90;;;;;;4976729;28;20213;-77
2022/05/30 08:33:21;;;;;;;1.67;1.40;;;13.10;99.90;;;;;;4976525;28;20579;-77
2022/05/30 08:36:07;;;;;;;2.93;1.80;;;12.80;99.90;;;;;;4976737;28;20180;-77
2022/05/30 08:38:33;;;;;;;3.43;1.60;;;12.80;99.90;;;;;;4992529;28;20228;-76
2022/05/30 08:43:50;;;;;;;2.90;1.60;;;12.60;99.90;;;;;;4993952;28;20227;-76
2022/05/30 08:46:37;;;;;;;1.83;1.33;;;12.70;99.90;;;;;;4992600;28;20183;-76
2022/05/30 08:49:25;;;;;;;1.90;1.33;;;12.70;99.90;;;;;;4993548;28;20187;-76
2022/05/30 08:52:12;;;;;;;1.70;1.27;;;12.80;99.90;;;;;;4992339;28;20713;-76
2022/05/30 08:54:53;;;;;;;1.60;1.30;;;12.90;99.90;;;;;;4992594;28;20254;-76
2022/05/30 08:57:51;;;;;;;1.73;1.40;;;12.70;99.90;;;;;;4992259;28;20200;-76
2022/05/30 09:00:33;;;;;;;2.93;1.43;;;12.70;99.90;;;;;;4993527;28;20156;-76
2022/05/30 09:03:11;;;;;;;1.90;1.23;;;12.70;99.90;;;;;;4993242;28;20522;-76
2022/05/30 09:05:47;;;;;;;2.73;1.50;;;12.50;99.90;;;;;;4992281;28;20167;-76
2022/05/30 09:08:37;;;;;;;1.80;1.20;;;12.60;99.90;;;;;;4991168;28;20202;-76
2022/05/30 09:11:10;;;;;;;2.60;1.37;;;12.70;99.90;;;;;;4991111;28;20216;-76
2022/05/30 09:13:42;;;;;;;1.60;1.30;;;12.80;99.90;;;;;;4976249;28;20178;-76
2022/05/30 09:16:26;;;;;;;1.60;1.30;;;12.90;99.90;;;;;;4992284;28;20525;-76
2022/05/30 09:18:53;;;;;;;2.70;1.27;;;13.00;99.90;;;;;;4991957;28;20634;-76
2022/05/30 09:21:26;;;;;;;3.83;1.80;;;13.00;99.90;;;;;;4993097;28;20734;-76
2022/05/30 09:23:52;;;;;;;1.97;1.40;;;13.00;99.90;;;;;;4991669;28;20232;-76
2022/05/30 09:26:27;;;;;;;1.83;1.47;;;13.00;99.90;;;;;;4975763;28;20184;-76
2022/05/30 09:28:55;;;;;;;1.50;1.13;;;13.00;99.90;;;;;;4991945;28;20194;-76
2022/05/30 09:31:21;;;;;;;2.53;1.27;;;13.20;99.90;;;;;;4959732;28;20230;-76
2022/05/30 09:33:50;;;;;;;1.53;1.00;;;13.20;99.90;;;;;;4991549;28;20203;-76
2022/05/30 09:36:28;;;;;;;2.27;1.20;;;13.30;99.90;;;;;;4975631;28;20663;-76
2022/05/30 09:39:02;;;;;;;1.43;1.27;;;13.20;99.90;;;;;;4993040;28;20187;-76
2022/05/30 09:41:37;;;;;;;2.10;1.20;;;13.30;99.90;;;;;;4991767;28;20171;-76
2022/05/30 09:44:10;;;;;;;1.70;1.30;;;13.40;99.90;;;;;;4991704;28;20170;-76
2022/05/30 09:46:38;;;;;;;2.43;1.20;;;13.30;99.90;;;;;;4991687;28;20166;-76
2022/05/30 09:49:08;;;;;;;3.33;1.33;;;13.30;99.90;;;;;;4991522;28;20694;-76
2022/05/30 09:51:43;;;;;;;2.00;1.13;;;13.20;99.90;;;;;;4991639;28;20195;-76
2022/05/30 09:54:12;;;;;;;2.20;1.20;;;13.30;99.90;;;;;;4976135;28;20648;-76
2022/05/30 09:56:42;;;;;;;1.37;1.20;;;13.30;99.90;;;;;;4991774;28;20174;-76
2022/05/30 09:59:34;;;;;;;2.40;1.30;;;13.30;99.90;;;;;;4976554;28;20533;-76
2022/05/30 10:02:01;;;;;;;1.67;1.40;;;13.30;99.90;;;;;;4991829;28;20650;-76
2022/05/30 10:04:38;;;;;;;1.20;1.10;;;13.30;99.90;;;;;;4976180;28;20230;-76
2022/05/30 10:07:13;;;;;;;2.10;1.40;;;13.20;99.90;;;;;;4975910;28;20195;-76
2022/05/30 10:09:58;;;;;;;2.40;1.30;;;13.10;99.90;;;;;;4975689;28;20221;-77
2022/05/30 10:12:40;;;;;;;2.80;1.30;;;13.10;99.90;;;;;;4991207;28;20716;-77
2022/05/30 10:15:33;;;;;;;1.83;1.23;;;13.00;99.90;;;;;;4975279;28;20179;-76
2022/05/30 10:18:17;;;;;;;2.43;1.30;;;13.10;99.90;;;;;;4991749;28;20206;-77
2022/05/30 10:21:05;;;;;;;1.73;1.37;;;13.20;99.90;;;;;;4993898;28;20595;-77
2022/05/30 10:29:37;;;;;;;3.03;1.30;;;13.30;99.90;;;;;;4996181;28;20206;-77
2022/05/30 10:32:24;;;;;;;1.77;1.10;;;13.30;99.90;;;;;;4994925;28;20186;-77
2022/05/30 10:34:53;;;;;;;2.67;1.50;;;13.30;99.90;;;;;;4996175;28;20167;-77
2022/05/30 10:37:34;;;;;;;2.30;1.33;;;13.30;99.90;;;;;;4994902;28;20194;-77
2022/05/30 10:40:07;;;;;;;2.13;1.60;;;13.40;99.90;;;;;;4996500;28;20261;-77
2022/05/30 10:42:50;;;;;;;1.30;1.20;;;13.30;99.90;;;;;;4995083;28;20186;-78
2022/05/30 10:45:36;;;;;;;1.87;1.10;;;13.30;99.90;;;;;;4994710;28;20179;-76
2022/05/30 10:48:05;;;;;;;1.73;1.30;;;13.40;99.90;;;;;;4994510;28;20720;-76
2022/05/30 10:50:53;;;;;;;1.67;1.30;;;13.50;99.90;;;;;;4995668;28;20254;-77
2022/05/30 10:53:26;;;;;;;2.00;1.30;;;13.50;99.90;;;;;;4994646;28;20176;-76
2022/05/30 10:55:54;;;;;;;1.93;1.30;;;13.60;99.90;;;;;;4994498;28;20172;-76
2022/05/30 10:58:32;;;;;;;2.83;1.40;;;13.70;99.90;;;;;;4978368;28;20238;-77
2022/05/30 11:01:06;;;;;;;1.50;1.30;;;13.70;99.90;;;;;;4978768;28;20602;-77
2022/05/30 11:03:41;;;;;;;2.90;1.30;;;13.70;99.90;;;;;;4994341;28;20179;-77
2022/05/30 11:06:23;;;;;;;2.30;1.27;;;13.80;99.90;;;;;;4994274;28;20221;-77
2022/05/30 11:09:12;;;;;;;1.70;1.30;;;13.90;99.90;;;;;;4994364;28;20183;-76
2022/05/30 11:11:56;;;;;;;1.83;1.57;;;14.00;99.90;;;;;;4994378;28;20776;-77
2022/05/30 11:15:01;;;;;;;1.67;1.33;;;14.10;99.90;;;;;;4994064;28;20262;-77
2022/05/30 11:17:36;;;;;;;2.67;1.40;;;14.10;99.90;;;;;;4995304;28;20255;-77
2022/05/30 11:20:14;;;;;;;4.03;1.30;;;14.10;99.90;;;;;;4994136;28;20543;-77
2022/05/30 11:22:48;;;;;;;2.20;1.30;;;14.10;99.90;;;;;;4994035;28;20171;-77
2022/05/30 11:25:19;;;;;;;1.33;1.23;;;14.10;99.90;;;;;;4994456;28;20176;-77
2022/05/30 11:28:08;;;;;;;3.10;1.47;;;14.00;99.90;;;;;;4978278;28;20206;-77
2022/05/30 11:30:35;;;;;;;1.43;1.33;;;14.10;99.90;;;;;;4992176;28;20207;-77
2022/05/30 11:33:41;;;;;;;1.63;1.20;;;14.20;99.90;;;;;;4993902;28;20192;-77
2022/05/30 11:36:52;;;;;;;1.43;1.23;;;14.40;99.90;;;;;;4993865;28;20612;-77
2022/05/30 11:39:37;;;;;;;1.60;1.30;;;14.40;99.90;;;;;;4989054;28;20207;-77
2022/05/30 11:42:31;;;;;;;1.63;1.20;;;14.50;99.90;;;;;;4993508;28;20205;-77
2022/05/30 11:45:02;;;;;;;2.53;1.50;;;14.80;99.90;;;;;;4993643;28;20172;-76
2022/05/30 11:47:43;;;;;;;2.93;1.27;;;14.90;99.90;;;;;;4978259;28;20219;-77
2022/05/30 11:50:20;;;;;;;1.53;1.43;;;15.20;99.90;;;;;;4993514;28;20199;-77
2022/05/30 11:53:22;;;;;;;2.03;1.30;;;15.40;99.90;;;;;;4994557;28;20661;-77
2022/05/30 11:56:01;;;;;;;1.53;1.10;;;15.20;99.90;;;;;;4993643;28;20167;-77
2022/05/30 11:59:04;;;;;;;2.27;1.33;;;15.40;99.90;;;;;;4993282;28;20198;-77
2022/05/30 12:01:34;;;;;;;1.40;1.30;;;15.40;99.90;;;;;;4993231;28;20180;-77
2022/05/30 12:04:15;;;;;;;1.43;1.20;;;15.70;99.90;;;;;;4993369;28;20179;-77
2022/05/30 12:06:52;;;;;;;1.53;1.30;;;15.70;99.90;;;;;;4993172;28;20216;-77
2022/05/30 12:09:40;;;;;;;3.20;1.30;;;15.60;99.90;;;;;;4993540;28;20207;-77
2022/05/30 12:12:35;;;;;;;2.57;1.27;;;15.50;99.90;;;;;;4994154;28;20226;-77
2022/05/30 12:15:28;;;;;;;1.53;1.20;;;15.50;99.90;;;;;;4967533;28;20254;-77
2022/05/30 12:24:19;;;;;;;1.47;1.30;;;15.80;99.90;;;;;;4994585;28;20186;-78
2022/05/30 12:26:54;;;;;;;2.43;1.20;;;15.80;99.90;;;;;;4993161;28;20191;-78
2022/05/30 12:29:38;;;;;;;1.60;1.20;;;15.80;99.90;;;;;;4993026;28;20171;-78
2022/05/30 12:32:16;;;;;;;1.63;1.20;;;15.80;99.90;;;;;;4992688;28;20179;-78
2022/05/30 12:35:00;;;;;;;2.43;1.17;;;15.80;99.90;;;;;;4992882;28;20179;-78
2022/05/30 12:37:47;;;;;;;1.40;1.30;;;16.00;99.90;;;;;;4992854;28;20192;-78
2022/05/30 12:40:27;;;;;;;1.40;1.20;;;16.30;99.90;;;;;;4994878;28;20189;-78
2022/05/30 12:43:15;;;;;;;2.37;1.20;;;16.40;99.90;;;;;;4991652;28;20222;-78
2022/05/30 12:45:50;;;;;;;1.77;1.30;;;16.50;99.90;;;;;;4992540;28;20180;-78
2022/05/30 12:48:37;;;;;;;1.87;1.20;;;16.50;99.90;;;;;;4976901;28;20219;-78
2022/05/30 12:51:14;;;;;;;1.23;1.13;;;16.30;99.90;;;;;;4992466;28;20228;-78
2022/05/30 12:53:55;;;;;;;3.20;1.30;;;16.10;99.90;;;;;;4976247;28;20179;-77
2022/05/30 12:56:59;;;;;;;2.33;1.33;;;15.40;99.90;;;;;;4992419;28;20648;-77
2022/05/30 12:59:33;;;;;;;1.83;1.20;;;15.30;99.90;;;;;;4913090;28;20263;-78
2022/05/30 13:02:00;;;;;;;1.67;1.23;;;15.10;99.90;;;;;;4992198;28;20194;-78
2022/05/30 13:04:29;;;;;;;1.30;1.20;;;15.30;99.90;;;;;;4992362;28;20191;-78
2022/05/30 13:07:13;;;;;;;2.57;1.40;;;15.30;99.90;;;;;;4976457;28;20624;-78
2022/05/30 13:09:48;;;;;;;1.37;1.10;;;15.50;99.90;;;;;;4992073;28;20242;-78
2022/05/30 13:12:56;;;;;;;1.73;1.13;;;15.60;99.90;;;;;;4975873;28;20176;-78
2022/05/30 13:15:38;;;;;;;2.10;1.50;;;15.60;99.90;;;;;;4992730;28;20199;-78
2022/05/30 13:18:20;;;;;;;1.87;1.37;;;15.90;99.90;;;;;;4977429;28;20342;-78
2022/05/30 13:20:51;;;;;;;1.47;1.20;;;15.90;99.90;;;;;;4991936;28;20186;-78
2022/05/30 13:23:28;;;;;;;1.73;1.20;;;16.10;99.90;;;;;;4993019;28;20589;-77
2022/05/30 13:25:55;;;;;;;2.70;1.30;;;16.10;99.90;;;;;;4975697;28;20188;-78
2022/05/30 13:28:21;;;;;;;1.43;1.17;;;16.20;99.90;;;;;;4992186;28;20199;-78
2022/05/30 13:30:48;;;;;;;2.27;1.40;;;16.30;99.90;;;;;;4991884;28;20254;-77
2022/05/30 13:33:20;;;;;;;1.70;1.20;;;16.70;99.90;;;;;;4991595;28;20179;-78
2022/05/30 13:35:49;;;;;;;2.63;1.30;;;17.10;99.90;;;;;;4989640;28;20808;-78
2022/05/30 13:38:15;;;;;;;1.60;1.10;;;17.20;99.90;;;;;;5014148;28;20187;-78
2022/05/30 13:40:41;;;;;;;1.67;1.20;;;17.40;99.90;;;;;;5009729;28;20183;-78
2022/05/30 13:43:09;;;;;;;1.87;1.20;;;17.60;99.90;;;;;;4994649;28;20199;-78
2022/05/30 13:45:37;;;;;;;2.30;1.30;;;17.60;99.90;;;;;;5010613;28;20605;-78
2022/05/30 13:48:11;;;;;;;1.40;1.20;;;17.60;99.90;;;;;;5012285;28;20261;-78
2022/05/30 13:51:10;;;;;;;2.90;1.40;;;17.40;99.90;;;;;;5011374;28;20195;-78
2022/05/30 13:53:43;;;;;;;1.87;1.07;;;17.10;99.90;;;;;;5004438;28;20185;-78
2022/05/30 13:56:31;;;;;;;2.60;1.43;;;16.90;99.90;;;;;;5011351;28;20541;-78
2022/05/30 13:58:58;;;;;;;4.13;1.50;;;16.70;99.90;;;;;;5011246;28;20664;-78
2022/05/30 14:01:34;;;;;;;1.30;1.20;;;16.80;99.90;;;;;;5056285;22;20249;-77
2022/05/30 14:04:06;;;;;;;3.20;1.20;;;16.80;99.90;;;;;;5067319;28;20228;-77
2022/05/30 14:06:40;;;;;;;1.40;1.20;;;16.80;99.90;;;;;;5050718;28;20196;-77
2022/05/30 14:09:11;;;;;;;3.27;1.20;;;16.80;99.90;;;;;;5050657;28;20182;-77
2022/05/30 14:12:00;;;;;;;2.60;1.40;;;17.00;99.90;;;;;;5030734;28;20297;-78
2022/05/30 14:15:05;;;;;;;1.87;1.37;;;17.50;99.90;;;;;;5047163;28;20178;-77
2022/05/30 14:17:31;;;;;;;1.73;1.20;;;17.50;99.90;;;;;;5030832;28;20179;-77
2022/05/30 14:20:11;;;;;;;1.30;1.20;;;17.30;99.90;;;;;;5014384;28;20234;-77
2022/05/30 14:22:49;;;;;;;2.93;1.30;;;17.10;99.90;;;;;;5030713;28;20273;-77
2022/05/30 14:25:28;;;;;;;1.47;1.10;;;17.20;99.90;;;;;;5032328;28;20182;-77
2022/05/30 14:27:54;;;;;;;1.40;1.10;;;17.10;99.90;;;;;;5047287;28;20178;-77
2022/05/30 14:30:30;;;;;;;1.77;1.10;;;17.10;99.90;;;;;;5047025;28;20202;-77
2022/05/30 14:33:16;;;;;;;1.93;1.33;;;16.80;99.90;;;;;;5031631;28;20696;-77
2022/05/30 14:35:43;;;;;;;1.40;1.20;;;17.00;99.90;;;;;;5031838;28;20186;-78
2022/05/30 14:38:22;;;;;;;2.43;1.60;;;16.90;99.90;;;;;;5030561;28;20180;-77
2022/05/30 14:40:50;;;;;;;1.87;1.10;;;16.30;99.90;;;;;;5047074;28;20206;-77
2022/05/30 14:43:28;;;;;;;3.17;1.30;;;16.00;99.90;;;;;;5030530;28;20189;-78
2022/05/30 14:46:11;;;;;;;1.20;1.10;;;16.00;99.90;;;;;;5047083;28;20186;-78
2022/05/30 14:48:50;;;;;;;2.57;1.23;;;16.20;99.90;;;;;;5031693;28;20174;-78
2022/05/30 14:51:29;;;;;;;1.57;1.13;;;16.40;99.90;;;;;;5030361;28;20241;-78
2022/05/30 14:54:02;;;;;;;1.87;1.20;;;16.40;99.90;;;;;;5031759;28;20174;-78
2022/05/30 14:56:28;;;;;;;1.80;1.20;;;16.40;99.90;;;;;;5030917;28;20228;-78
2022/05/30 14:59:00;;;;;;;3.00;1.33;;;16.40;99.90;;;;;;5046964;28;20201;-78
2022/05/30 15:01:27;;;;;;;2.50;1.50;;;16.30;99.90;;;;;;5046783;28;20236;-78
2022/05/30 15:04:12;;;;;;;1.83;1.23;;;16.00;99.90;;;;;;5014147;28;20680;-77
2022/05/30 15:07:06;;;;;;;1.27;1.10;;;16.10;99.90;;;;;;5033336;28;20258;-77
2022/05/30 15:09:34;;;;;;;2.60;1.20;;;16.00;99.90;;;;;;5050328;28;20232;-77
2022/05/30 15:12:00;;;;;;;3.40;1.30;;;16.10;99.90;;;;;;5050298;28;20190;-77
2022/05/30 15:14:27;;;;;;;1.50;1.40;;;16.20;99.90;;;;;;5033827;28;20175;-77
2022/05/30 15:16:54;;;;;;;1.63;1.10;;;16.20;99.90;;;;;;5033984;28;20181;-77
2022/05/30 15:19:21;;;;;;;1.83;1.20;;;16.20;99.90;;;;;;5034805;28;20692;-77
2022/05/30 15:21:50;;;;;;;1.47;1.00;;;16.30;99.90;;;;;;5017063;28;20260;-77
2022/05/30 15:24:29;;;;;;;1.40;1.20;;;16.40;99.90;;;;;;5034789;28;20166;-77
2022/05/30 15:26:55;;;;;;;1.57;1.17;;;16.50;99.90;;;;;;5049964;28;20525;-77
2022/05/30 15:29:20;;;;;;;1.70;1.30;;;16.70;99.90;;;;;;5033248;28;20190;-77
2022/05/30 15:31:58;;;;;;;2.67;1.07;;;16.80;99.90;;;;;;5033354;28;20262;-77
2022/05/30 15:34:24;;;;;;;2.73;1.40;;;17.50;99.90;;;;;;5034973;28;20320;-77
2022/05/30 15:36:49;;;;;;;1.87;1.20;;;17.60;99.90;;;;;;5011046;28;20589;-77
2022/05/30 15:39:17;;;;;;;1.73;1.20;;;17.20;99.90;;;;;;5013306;28;20182;-77
2022/05/30 15:41:48;;;;;;;3.53;1.40;;;16.90;99.90;;;;;;5013135;28;20222;-77
2022/05/30 15:44:17;;;;;;;1.87;1.27;;;16.80;99.90;;;;;;5014284;28;20175;-77
2022/05/30 15:46:44;;;;;;;1.97;1.20;;;16.70;99.90;;;;;;5013605;28;20225;-77
2022/05/30 15:49:11;;;;;;;1.80;1.07;;;16.50;99.90;;;;;;5014375;28;20195;-77
2022/05/30 15:51:37;;;;;;;1.53;1.20;;;16.80;99.90;;;;;;5029568;28;20210;-77
2022/05/30 15:59:35;;;;;;;1.57;1.20;;;17.30;99.90;;;;;;5014530;28;20178;-77